Spirit of New Zealand — ZMSV — position and weather

sailwx.info

Track history (hours):
 
Tides and Currents Weather Stations Pressure Air Temp Water Temp Dewpoint Dewpoint Depression Visibility Wind Speed Wind Dir Waves Ship Positions

Spirit of New Zealand

Last reported at 2019-Dec-04 11:54 UTC. Time now 2019-Dec-08 10:59 UTC.
Position S 42°24' E 173°51'.

Length 37 m; draft 4.1 m.

Type: Passenger vessel. MMSI: 512201000.

Date/timePositionNaut miles runAvg speedWind from/ knotsBaromVisibWave heightAir tempDewpointWater temp
2019-Dec-04 11:54S 42°24' E 173°51'15 5.8
2019-Dec-04 09:23S 42°12' E 174°01'4 4.6
2019-Dec-04 08:27S 42°09' E 174°05'15 7.5
2019-Dec-04 06:31S 41°56' E 174°16'9 8.8
2019-Dec-04 05:30S 41°50' E 174°23'5 9.4
2019-Dec-04 05:00S 41°46' E 174°27'9 9.1
2019-Dec-04 04:01S 41°39' E 174°35'510.3
2019-Dec-04 03:31S 41°35' E 174°38'1010.1
2019-Dec-04 02:30S 41°26' E 174°46'5 9.7
2019-Dec-04 02:00S 41°22' E 174°50'7 4.9
2019-Dec-04 00:30S 41°15' E 174°51'3 2.6
2019-Dec-03 23:30S 41°17' E 174°48'1 0.6
2019-Dec-03 21:30S 41°17' E 174°47'0 0.0
2019-Dec-03 21:00S 41°17' E 174°47'0 0.0
2019-Dec-03 20:27S 41°17' E 174°47'0 0.0
2019-Dec-03 20:00S 41°17' E 174°47'0 0.0
2019-Dec-01 20:00S 41°17' E 174°47'0 0.0
2019-Dec-01 18:27S 41°17' E 174°47'0 0.0
2019-Dec-01 16:30S 41°17' E 174°47'0 0.0
2019-Dec-01 16:00S 41°17' E 174°47'0 0.0
2019-Dec-01 14:00S 41°17' E 174°47'0 0.0
2019-Dec-01 13:00S 41°17' E 174°47'0 0.0
2019-Dec-01 12:00S 41°17' E 174°47'0 0.0
2019-Dec-01 11:30S 41°17' E 174°47'0 0.0
2019-Dec-01 08:30S 41°17' E 174°47'0 0.0
2019-Dec-01 05:30S 41°17' E 174°47'0 0.0
2019-Dec-01 05:00S 41°17' E 174°47'0 0.0
2019-Dec-01 04:00S 41°17' E 174°47'0 0.0
2019-Dec-01 03:30S 41°17' E 174°47'0 0.0
2019-Dec-01 02:30S 41°17' E 174°47'0 0.0
2019-Dec-01 00:00S 41°17' E 174°47'0 0.0
2019-Nov-30 23:00S 41°17' E 174°47'0 0.0
2019-Nov-30 21:30S 41°17' E 174°47'0 0.0
2019-Nov-30 20:30S 41°17' E 174°47'0 0.0
2019-Nov-30 19:00S 41°17' E 174°47'0 0.0
2019-Nov-30 18:30S 41°17' E 174°47'0 0.0
2019-Nov-30 13:30S 41°17' E 174°47'0 0.0
2019-Nov-30 12:30S 41°17' E 174°47'0 0.0
2019-Nov-30 05:30S 41°17' E 174°47'0 0.0
2019-Nov-30 05:00S 41°17' E 174°47'0 0.0
2019-Nov-30 03:30S 41°17' E 174°47'0 0.0
2019-Nov-30 02:30S 41°17' E 174°47'0 0.0
2019-Nov-30 01:00S 41°17' E 174°47'0 0.0
2019-Nov-29 23:00S 41°17' E 174°47'0 0.0
2019-Nov-29 21:30S 41°17' E 174°47'0 0.0
2019-Nov-29 21:00S 41°17' E 174°47'0 0.0
2019-Nov-29 20:30S 41°17' E 174°47'0 0.0
2019-Nov-29 19:30S 41°17' E 174°47'0 0.0
2019-Nov-29 18:00S 41°17' E 174°47'0 0.0
2019-Nov-29 17:30S 41°17' E 174°47'0 0.0
2019-Nov-29 16:30S 41°17' E 174°47'0 0.0
2019-Nov-29 16:00S 41°17' E 174°47'0 0.0
2019-Nov-29 15:30S 41°17' E 174°47'0 0.0
2019-Nov-29 14:00S 41°17' E 174°47'0 0.0
2019-Nov-29 12:00S 41°17' E 174°47'0 0.0
2019-Nov-29 11:30S 41°17' E 174°47'0 0.0
2019-Nov-29 09:30S 41°17' E 174°47'0 0.0
2019-Nov-29 07:30S 41°17' E 174°47'0 0.0
2019-Nov-29 07:00S 41°17' E 174°47'0 0.0
2019-Nov-29 06:30S 41°17' E 174°47'0 0.0
2019-Nov-29 05:00S 41°17' E 174°47'0 0.0
2019-Nov-29 04:30S 41°17' E 174°47'0 0.0
2019-Nov-29 03:30S 41°17' E 174°47'0 0.0
2019-Nov-29 02:30S 41°17' E 174°47'0 0.0
2019-Nov-29 02:00S 41°17' E 174°47'2 1.4
2019-Nov-29 00:30S 41°17' E 174°50'3 1.0
2019-Nov-28 21:30S 41°19' E 174°51'5 0.6
2019-Nov-28 13:24S 41°21' E 174°46'1 0.1
2019-Nov-28 07:27S 41°22' E 174°45'6 6.2
2019-Nov-28 06:30S 41°22' E 174°38'11 7.1
2019-Nov-28 05:00S 41°22' E 174°23'3 5.9
2019-Nov-28 04:31S 41°22' E 174°19'8 4.2
2019-Nov-28 02:30S 41°22' E 174°08'2 1.8
2019-Nov-28 01:29S 41°20' E 174°07'0 0.0
2019-Nov-27 23:59S 41°20' E 174°07'0 0.0
2019-Nov-27 21:29S 41°20' E 174°07'0 0.0
2019-Nov-27 20:59S 41°20' E 174°07'0 0.0
2019-Nov-27 20:29S 41°20' E 174°07'0 0.1
2019-Nov-27 19:59S 41°20' E 174°07'1 1.8
2019-Nov-27 19:28S 41°19' E 174°07'0 0.0
2019-Nov-27 17:28S 41°19' E 174°07'0 0.0
2019-Nov-27 16:58S 41°19' E 174°07'0 0.1
2019-Nov-27 16:28S 41°19' E 174°07'0 0.0
2019-Nov-27 15:28S 41°19' E 174°07'0 0.0
2019-Nov-27 14:25S 41°19' E 174°07'0 0.0
2019-Nov-27 13:58S 41°19' E 174°07'0 0.0
2019-Nov-27 12:52S 41°19' E 174°07'0 0.0
2019-Nov-27 09:58S 41°19' E 174°07'0 0.0
2019-Nov-27 09:28S 41°19' E 174°07'0 0.0
2019-Nov-27 08:28S 41°19' E 174°07'0 0.0
2019-Nov-27 06:28S 41°19' E 174°07'1 0.3
2019-Nov-27 03:28S 41°20' E 174°07'0 0.0
2019-Nov-27 02:28S 41°20' E 174°07'12 3.4
2019-Nov-26 23:01S 41°17' E 174°22'3 5.3
2019-Nov-26 22:31S 41°14' E 174°20'5 4.6
2019-Nov-26 21:31S 41°15' E 174°13'4 2.9
2019-Nov-26 20:00S 41°11' E 174°10'0 0.0
2019-Nov-26 19:30S 41°11' E 174°10'0 0.1
2019-Nov-26 19:00S 41°11' E 174°10'0 0.0
2019-Nov-26 14:27S 41°11' E 174°10'0 0.0
2019-Nov-26 13:00S 41°11' E 174°10'0 0.0
2019-Nov-26 10:30S 41°11' E 174°10'0 0.0
2019-Nov-26 09:00S 41°11' E 174°10'0 0.0
2019-Nov-26 07:30S 41°11' E 174°10'0 0.0
2019-Nov-26 07:00S 41°11' E 174°10'0 0.0
2019-Nov-26 06:30S 41°11' E 174°10'0 0.0
2019-Nov-26 05:30S 41°11' E 174°10'0 0.0
2019-Nov-26 03:31S 41°11' E 174°10'6 1.7
2019-Nov-26 00:00S 41°07' E 174°15'15 2.7
2019-Nov-25 18:29S 41°17' E 174°00'0 0.0
2019-Nov-25 16:29S 41°17' E 174°00'0 0.0
2019-Nov-25 13:29S 41°17' E 174°00'0 0.0
2019-Nov-25 11:29S 41°17' E 174°00'0 0.0
2019-Nov-25 10:59S 41°17' E 174°00'0 0.0
2019-Nov-25 08:59S 41°17' E 174°00'0 0.0
2019-Nov-25 00:59S 41°17' E 174°00'0 0.0
2019-Nov-24 21:29S 41°17' E 174°00'0 0.0
2019-Nov-24 20:59S 41°17' E 174°00'0 0.0
2019-Nov-24 19:29S 41°17' E 174°00'0 0.0
2019-Nov-24 17:26S 41°17' E 174°00'0 0.0
2019-Nov-24 16:59S 41°17' E 174°00'0 0.0
2019-Nov-24 14:29S 41°17' E 174°00'0 0.0
2019-Nov-24 12:29S 41°17' E 174°00'0 0.0
2019-Nov-24 11:59S 41°17' E 174°00'  
Track history (hours):
 
Tides and Currents Weather Stations Pressure Air Temp Water Temp Dewpoint Dewpoint Depression Visibility Wind Speed Wind Dir Waves Ship Positions

Spirit of New Zealand

Last reported at 2019-Dec-04 11:54 UTC. Time now 2019-Dec-08 10:59 UTC.
Position S 42°24' E 173°51'.

Length 37 m; draft 4.1 m.

Type: Passenger vessel. MMSI: 512201000.

Date/timePositionNaut miles runAvg speedWind from/ knotsBaromVisibWave heightAir tempDewpointWater temp
2019-Dec-04 11:54S 42°24' E 173°51'15 5.8
2019-Dec-04 09:23S 42°12' E 174°01'4 4.6
2019-Dec-04 08:27S 42°09' E 174°05'15 7.5
2019-Dec-04 06:31S 41°56' E 174°16'9 8.8
2019-Dec-04 05:30S 41°50' E 174°23'5 9.4
2019-Dec-04 05:00S 41°46' E 174°27'9 9.1
2019-Dec-04 04:01S 41°39' E 174°35'510.3
2019-Dec-04 03:31S 41°35' E 174°38'1010.1
2019-Dec-04 02:30S 41°26' E 174°46'5 9.7
2019-Dec-04 02:00S 41°22' E 174°50'7 4.9
2019-Dec-04 00:30S 41°15' E 174°51'3 2.6
2019-Dec-03 23:30S 41°17' E 174°48'1 0.6
2019-Dec-03 21:30S 41°17' E 174°47'0 0.0
2019-Dec-03 21:00S 41°17' E 174°47'0 0.0
2019-Dec-03 20:27S 41°17' E 174°47'0 0.0
2019-Dec-03 20:00S 41°17' E 174°47'0 0.0
2019-Dec-01 20:00S 41°17' E 174°47'0 0.0
2019-Dec-01 18:27S 41°17' E 174°47'0 0.0
2019-Dec-01 16:30S 41°17' E 174°47'0 0.0
2019-Dec-01 16:00S 41°17' E 174°47'0 0.0
2019-Dec-01 14:00S 41°17' E 174°47'0 0.0
2019-Dec-01 13:00S 41°17' E 174°47'0 0.0
2019-Dec-01 12:00S 41°17' E 174°47'0 0.0
2019-Dec-01 11:30S 41°17' E 174°47'0 0.0
2019-Dec-01 08:30S 41°17' E 174°47'0 0.0
2019-Dec-01 05:30S 41°17' E 174°47'0 0.0
2019-Dec-01 05:00S 41°17' E 174°47'0 0.0
2019-Dec-01 04:00S 41°17' E 174°47'0 0.0
2019-Dec-01 03:30S 41°17' E 174°47'0 0.0
2019-Dec-01 02:30S 41°17' E 174°47'0 0.0
2019-Dec-01 00:00S 41°17' E 174°47'0 0.0
2019-Nov-30 23:00S 41°17' E 174°47'0 0.0
2019-Nov-30 21:30S 41°17' E 174°47'0 0.0
2019-Nov-30 20:30S 41°17' E 174°47'0 0.0
2019-Nov-30 19:00S 41°17' E 174°47'0 0.0
2019-Nov-30 18:30S 41°17' E 174°47'0 0.0
2019-Nov-30 13:30S 41°17' E 174°47'0 0.0
2019-Nov-30 12:30S 41°17' E 174°47'0 0.0
2019-Nov-30 05:30S 41°17' E 174°47'0 0.0
2019-Nov-30 05:00S 41°17' E 174°47'0 0.0
2019-Nov-30 03:30S 41°17' E 174°47'0 0.0
2019-Nov-30 02:30S 41°17' E 174°47'0 0.0
2019-Nov-30 01:00S 41°17' E 174°47'0 0.0
2019-Nov-29 23:00S 41°17' E 174°47'0 0.0
2019-Nov-29 21:30S 41°17' E 174°47'0 0.0
2019-Nov-29 21:00S 41°17' E 174°47'0 0.0
2019-Nov-29 20:30S 41°17' E 174°47'0 0.0
2019-Nov-29 19:30S 41°17' E 174°47'0 0.0
2019-Nov-29 18:00S 41°17' E 174°47'0 0.0
2019-Nov-29 17:30S 41°17' E 174°47'0 0.0
2019-Nov-29 16:30S 41°17' E 174°47'0 0.0
2019-Nov-29 16:00S 41°17' E 174°47'0 0.0
2019-Nov-29 15:30S 41°17' E 174°47'0 0.0
2019-Nov-29 14:00S 41°17' E 174°47'0 0.0
2019-Nov-29 12:00S 41°17' E 174°47'0 0.0
2019-Nov-29 11:30S 41°17' E 174°47'0 0.0
2019-Nov-29 09:30S 41°17' E 174°47'0 0.0
2019-Nov-29 07:30S 41°17' E 174°47'0 0.0
2019-Nov-29 07:00S 41°17' E 174°47'0 0.0
2019-Nov-29 06:30S 41°17' E 174°47'0 0.0
2019-Nov-29 05:00S 41°17' E 174°47'0 0.0
2019-Nov-29 04:30S 41°17' E 174°47'0 0.0
2019-Nov-29 03:30S 41°17' E 174°47'0 0.0
2019-Nov-29 02:30S 41°17' E 174°47'0 0.0
2019-Nov-29 02:00S 41°17' E 174°47'2 1.4
2019-Nov-29 00:30S 41°17' E 174°50'3 1.0
2019-Nov-28 21:30S 41°19' E 174°51'5 0.6
2019-Nov-28 13:24S 41°21' E 174°46'1 0.1
2019-Nov-28 07:27S 41°22' E 174°45'6 6.2
2019-Nov-28 06:30S 41°22' E 174°38'11 7.1
2019-Nov-28 05:00S 41°22' E 174°23'3 5.9
2019-Nov-28 04:31S 41°22' E 174°19'8 4.2
2019-Nov-28 02:30S 41°22' E 174°08'2 1.8
2019-Nov-28 01:29S 41°20' E 174°07'0 0.0
2019-Nov-27 23:59S 41°20' E 174°07'0 0.0
2019-Nov-27 21:29S 41°20' E 174°07'0 0.0
2019-Nov-27 20:59S 41°20' E 174°07'0 0.0
2019-Nov-27 20:29S 41°20' E 174°07'0 0.1
2019-Nov-27 19:59S 41°20' E 174°07'1 1.8
2019-Nov-27 19:28S 41°19' E 174°07'0 0.0
2019-Nov-27 17:28S 41°19' E 174°07'0 0.0
2019-Nov-27 16:58S 41°19' E 174°07'0 0.1
2019-Nov-27 16:28S 41°19' E 174°07'0 0.0
2019-Nov-27 15:28S 41°19' E 174°07'0 0.0
2019-Nov-27 14:25S 41°19' E 174°07'0 0.0
2019-Nov-27 13:58S 41°19' E 174°07'0 0.0
2019-Nov-27 12:52S 41°19' E 174°07'0 0.0
2019-Nov-27 09:58S 41°19' E 174°07'0 0.0
2019-Nov-27 09:28S 41°19' E 174°07'0 0.0
2019-Nov-27 08:28S 41°19' E 174°07'0 0.0
2019-Nov-27 06:28S 41°19' E 174°07'1 0.3
2019-Nov-27 03:28S 41°20' E 174°07'0 0.0
2019-Nov-27 02:28S 41°20' E 174°07'12 3.4
2019-Nov-26 23:01S 41°17' E 174°22'3 5.3
2019-Nov-26 22:31S 41°14' E 174°20'5 4.6
2019-Nov-26 21:31S 41°15' E 174°13'4 2.9
2019-Nov-26 20:00S 41°11' E 174°10'0 0.0
2019-Nov-26 19:30S 41°11' E 174°10'0 0.1
2019-Nov-26 19:00S 41°11' E 174°10'0 0.0
2019-Nov-26 14:27S 41°11' E 174°10'0 0.0
2019-Nov-26 13:00S 41°11' E 174°10'0 0.0
2019-Nov-26 10:30S 41°11' E 174°10'0 0.0
2019-Nov-26 09:00S 41°11' E 174°10'0 0.0
2019-Nov-26 07:30S 41°11' E 174°10'0 0.0
2019-Nov-26 07:00S 41°11' E 174°10'0 0.0
2019-Nov-26 06:30S 41°11' E 174°10'0 0.0
2019-Nov-26 05:30S 41°11' E 174°10'0 0.0
2019-Nov-26 03:31S 41°11' E 174°10'6 1.7
2019-Nov-26 00:00S 41°07' E 174°15'15 2.7
2019-Nov-25 18:29S 41°17' E 174°00'0 0.0
2019-Nov-25 16:29S 41°17' E 174°00'0 0.0
2019-Nov-25 13:29S 41°17' E 174°00'0 0.0
2019-Nov-25 11:29S 41°17' E 174°00'0 0.0
2019-Nov-25 10:59S 41°17' E 174°00'0 0.0
2019-Nov-25 08:59S 41°17' E 174°00'0 0.0
2019-Nov-25 00:59S 41°17' E 174°00'0 0.0
2019-Nov-24 21:29S 41°17' E 174°00'0 0.0
2019-Nov-24 20:59S 41°17' E 174°00'0 0.0
2019-Nov-24 19:29S 41°17' E 174°00'0 0.0
2019-Nov-24 17:26S 41°17' E 174°00'0 0.0
2019-Nov-24 16:59S 41°17' E 174°00'0 0.0
2019-Nov-24 14:29S 41°17' E 174°00'0 0.0
2019-Nov-24 12:29S 41°17' E 174°00'0 0.0
2019-Nov-24 11:59S 41°17' E 174°00'  

Dump ship's entire track history